sensor_id;sensor_type;location;lat;lon;timestamp;temperature;humidity
17033;DHT22;63208;52.178;21.016;2023-08-06T00:01:33;19.30;99.90
17033;DHT22;63208;52.178;21.016;2023-08-06T00:03:59;19.30;99.90
17033;DHT22;63208;52.178;21.016;2023-08-06T00:06:26;19.30;99.90
17033;DHT22;63208;52.178;21.016;2023-08-06T00:08:53;19.30;99.90
17033;DHT22;63208;52.178;21.016;2023-08-06T00:11:21;19.30;99.90
17033;DHT22;63208;52.178;21.016;2023-08-06T00:13:48;19.30;99.90
17033;DHT22;63208;52.178;21.016;2023-08-06T00:16:14;19.30;99.90
17033;DHT22;63208;52.178;21.016;2023-08-06T00:18:41;19.30;99.90
17033;DHT22;63208;52.178;21.016;2023-08-06T00:23:37;19.20;99.90
17033;DHT22;63208;52.178;21.016;2023-08-06T00:26:04;19.40;99.90
17033;DHT22;63208;52.178;21.016;2023-08-06T00:28:32;19.40;99.90
17033;DHT22;63208;52.178;21.016;2023-08-06T00:30:58;19.40;99.90
17033;DHT22;63208;52.178;21.016;2023-08-06T00:33:25;19.20;99.90
17033;DHT22;63208;52.178;21.016;2023-08-06T00:35:51;19.20;99.90
17033;DHT22;63208;52.178;21.016;2023-08-06T00:38:18;19.20;99.90
17033;DHT22;63208;52.178;21.016;2023-08-06T00:40:45;19.50;99.90
17033;DHT22;63208;52.178;21.016;2023-08-06T00:43:11;19.30;99.90
17033;DHT22;63208;52.178;21.016;2023-08-06T00:45:39;19.20;99.90
17033;DHT22;63208;52.178;21.016;2023-08-06T00:48:06;19.20;99.90
17033;DHT22;63208;52.178;21.016;2023-08-06T00:50:33;19.20;99.90
17033;DHT22;63208;52.178;21.016;2023-08-06T00:57:53;19.10;99.90
17033;DHT22;63208;52.178;21.016;2023-08-06T04:30:14;19.80;99.90
17033;DHT22;63208;52.178;21.016;2023-08-06T04:32:41;19.90;99.90
17033;DHT22;63208;52.178;21.016;2023-08-06T04:35:08;20.00;99.90
17033;DHT22;63208;52.178;21.016;2023-08-06T04:37:34;19.90;99.90
17033;DHT22;63208;52.178;21.016;2023-08-06T04:40:01;19.90;99.90
17033;DHT22;63208;52.178;21.016;2023-08-06T04:42:28;19.90;99.90
17033;DHT22;63208;52.178;21.016;2023-08-06T04:44:55;19.90;99.90
17033;DHT22;63208;52.178;21.016;2023-08-06T04:47:23;19.90;99.90
17033;DHT22;63208;52.178;21.016;2023-08-06T04:49:51;20.00;99.90
17033;DHT22;63208;52.178;21.016;2023-08-06T05:19:16;20.40;99.90
17033;DHT22;63208;52.178;21.016;2023-08-06T05:21:42;20.30;99.90
17033;DHT22;63208;52.178;21.016;2023-08-06T05:24:09;20.30;99.90
17033;DHT22;63208;52.178;21.016;2023-08-06T05:26:37;20.40;99.90
17033;DHT22;63208;52.178;21.016;2023-08-06T05:29:04;20.30;99.90
17033;DHT22;63208;52.178;21.016;2023-08-06T05:31:30;20.30;99.90
17033;DHT22;63208;52.178;21.016;2023-08-06T05:33:57;20.40;99.90
17033;DHT22;63208;52.178;21.016;2023-08-06T05:36:25;20.40;99.90
17033;DHT22;63208;52.178;21.016;2023-08-06T05:38:52;20.40;99.90
17033;DHT22;63208;52.178;21.016;2023-08-06T05:41:18;20.50;99.90
17033;DHT22;63208;52.178;21.016;2023-08-06T05:43:45;20.50;99.90
17033;DHT22;63208;52.178;21.016;2023-08-06T05:46:12;20.60;99.90
17033;DHT22;63208;52.178;21.016;2023-08-06T05:48:38;20.70;99.90
17033;DHT22;63208;52.178;21.016;2023-08-06T05:51:05;20.70;99.90
17033;DHT22;63208;52.178;21.016;2023-08-06T05:53:34;20.80;99.90
17033;DHT22;63208;52.178;21.016;2023-08-06T05:56:01;20.80;99.90
17033;DHT22;63208;52.178;21.016;2023-08-06T05:58:27;20.90;99.90
17033;DHT22;63208;52.178;21.016;2023-08-06T10:03:37;26.70;99.90
17033;DHT22;63208;52.178;21.016;2023-08-06T10:06:04;26.80;99.90
17033;DHT22;63208;52.178;21.016;2023-08-06T10:08:33;26.80;99.90
17033;DHT22;63208;52.178;21.016;2023-08-06T10:11:00;26.90;99.90
17033;DHT22;63208;52.178;21.016;2023-08-06T10:13:29;27.00;99.90
17033;DHT22;63208;52.178;21.016;2023-08-06T10:18:23;27.00;99.90
17033;DHT22;63208;52.178;21.016;2023-08-06T10:20:51;27.10;99.90
17033;DHT22;63208;52.178;21.016;2023-08-06T10:23:19;27.20;99.90
17033;DHT22;63208;52.178;21.016;2023-08-06T10:25:46;27.30;99.90
17033;DHT22;63208;52.178;21.016;2023-08-06T10:28:20;27.50;99.90
17033;DHT22;63208;52.178;21.016;2023-08-06T10:30:47;27.40;99.90
17033;DHT22;63208;52.178;21.016;2023-08-06T13:48:04;29.80;99.90
17033;DHT22;63208;52.178;21.016;2023-08-06T13:50:31;29.60;99.90
17033;DHT22;63208;52.178;21.016;2023-08-06T13:52:58;28.90;99.90
17033;DHT22;63208;52.178;21.016;2023-08-06T13:55:26;28.60;99.90
17033;DHT22;63208;52.178;21.016;2023-08-06T14:05:15;29.00;99.90
17033;DHT22;63208;52.178;21.016;2023-08-06T14:15:09;33.20;99.90
17033;DHT22;63208;52.178;21.016;2023-08-06T14:23:03;32.20;99.90
17033;DHT22;63208;52.178;21.016;2023-08-06T14:25:30;31.40;99.90
17033;DHT22;63208;52.178;21.016;2023-08-06T14:45:44;28.70;99.90
17033;DHT22;63208;52.178;21.016;2023-08-06T14:48:11;28.60;99.90
17033;DHT22;63208;52.178;21.016;2023-08-06T14:50:37;28.40;99.90
17033;DHT22;63208;52.178;21.016;2023-08-06T14:53:07;28.30;99.90
17033;DHT22;63208;52.178;21.016;2023-08-06T14:55:35;28.20;99.90
17033;DHT22;63208;52.178;21.016;2023-08-06T14:58:02;28.00;99.90
17033;DHT22;63208;52.178;21.016;2023-08-06T15:00:29;27.90;99.90
17033;DHT22;63208;52.178;21.016;2023-08-06T15:02:57;28.20;99.90
17033;DHT22;63208;52.178;21.016;2023-08-06T15:05:24;27.10;99.90
17033;DHT22;63208;52.178;21.016;2023-08-06T15:22:35;26.80;99.90
17033;DHT22;63208;52.178;21.016;2023-08-06T15:25:02;26.70;99.90
17033;DHT22;63208;52.178;21.016;2023-08-06T15:27:29;26.50;99.90
17033;DHT22;63208;52.178;21.016;2023-08-06T15:29:57;26.20;99.90
17033;DHT22;63208;52.178;21.016;2023-08-06T15:32:23;26.20;99.90
17033;DHT22;63208;52.178;21.016;2023-08-06T15:49:36;25.50;99.90
17033;DHT22;63208;52.178;21.016;2023-08-06T15:52:03;25.70;99.90
17033;DHT22;63208;52.178;21.016;2023-08-06T15:54:29;25.70;99.90
17033;DHT22;63208;52.178;21.016;2023-08-06T15:56:56;25.70;99.90
17033;DHT22;63208;52.178;21.016;2023-08-06T16:58:15;24.50;99.90
17033;DHT22;63208;52.178;21.016;2023-08-06T17:00:43;24.40;99.90
17033;DHT22;63208;52.178;21.016;2023-08-06T17:03:10;24.30;99.90
17033;DHT22;63208;52.178;21.016;2023-08-06T17:05:36;24.30;99.90
17033;DHT22;63208;52.178;21.016;2023-08-06T17:08:03;24.90;99.90
17033;DHT22;63208;52.178;21.016;2023-08-06T17:10:30;24.20;99.90
17033;DHT22;63208;52.178;21.016;2023-08-06T17:12:57;24.10;99.90
17033;DHT22;63208;52.178;21.016;2023-08-06T17:15:25;23.90;99.90
17033;DHT22;63208;52.178;21.016;2023-08-06T17:17:52;23.90;99.90
17033;DHT22;63208;52.178;21.016;2023-08-06T17:20:19;23.70;99.90
17033;DHT22;63208;52.178;21.016;2023-08-06T17:25:14;23.30;99.90
17033;DHT22;63208;52.178;21.016;2023-08-06T17:27:41;23.30;99.90
17033;DHT22;63208;52.178;21.016;2023-08-06T17:30:08;23.20;99.90
17033;DHT22;63208;52.178;21.016;2023-08-06T17:32:36;23.00;99.90
17033;DHT22;63208;52.178;21.016;2023-08-06T17:35:05;22.90;99.90
17033;DHT22;63208;52.178;21.016;2023-08-06T17:37:32;22.60;99.90
17033;DHT22;63208;52.178;21.016;2023-08-06T17:39:59;22.40;99.90
17033;DHT22;63208;52.178;21.016;2023-08-06T17:42:26;22.20;99.90
17033;DHT22;63208;52.178;21.016;2023-08-06T17:44:52;23.00;99.90
17033;DHT22;63208;52.178;21.016;2023-08-06T17:49:48;21.30;99.90
17033;DHT22;63208;52.178;21.016;2023-08-06T17:52:14;21.40;99.90
17033;DHT22;63208;52.178;21.016;2023-08-06T18:34:37;19.80;99.90
17033;DHT22;63208;52.178;21.016;2023-08-06T18:37:05;19.70;99.90
17033;DHT22;63208;52.178;21.016;2023-08-06T18:45:01;19.40;99.90
17033;DHT22;63208;52.178;21.016;2023-08-06T18:52:23;19.20;99.90
17033;DHT22;63208;52.178;21.016;2023-08-06T18:54:50;19.10;99.90
17033;DHT22;63208;52.178;21.016;2023-08-06T18:57:16;19.10;99.90
17033;DHT22;63208;52.178;21.016;2023-08-06T18:59:44;19.00;99.90
17033;DHT22;63208;52.178;21.016;2023-08-06T19:02:10;19.00;99.90
17033;DHT22;63208;52.178;21.016;2023-08-06T19:30:28;19.80;99.90
17033;DHT22;63208;52.178;21.016;2023-08-06T19:43:09;18.70;99.90
17033;DHT22;63208;52.178;21.016;2023-08-06T20:05:13;18.40;99.90
17033;DHT22;63208;52.178;21.016;2023-08-06T20:07:40;18.40;99.90
17033;DHT22;63208;52.178;21.016;2023-08-06T20:10:07;18.20;99.90
17033;DHT22;63208;52.178;21.016;2023-08-06T20:12:34;18.20;99.90
17033;DHT22;63208;52.178;21.016;2023-08-06T20:15:01;18.20;99.90
17033;DHT22;63208;52.178;21.016;2023-08-06T20:17:28;20.00;99.90
17033;DHT22;63208;52.178;21.016;2023-08-06T20:19:54;18.20;99.90
17033;DHT22;63208;52.178;21.016;2023-08-06T20:22:22;18.20;99.90
17033;DHT22;63208;52.178;21.016;2023-08-06T20:24:58;18.10;99.90
17033;DHT22;63208;52.178;21.016;2023-08-06T20:27:25;18.20;99.90
17033;DHT22;63208;52.178;21.016;2023-08-06T20:29:52;18.20;99.90
17033;DHT22;63208;52.178;21.016;2023-08-06T20:32:18;18.30;99.90
17033;DHT22;63208;52.178;21.016;2023-08-06T20:34:45;18.30;99.90
17033;DHT22;63208;52.178;21.016;2023-08-06T20:37:12;18.30;99.90
17033;DHT22;63208;52.178;21.016;2023-08-06T20:39:40;18.30;99.90
17033;DHT22;63208;52.178;21.016;2023-08-06T20:42:07;18.20;99.90
17033;DHT22;63208;52.178;21.016;2023-08-06T20:44:33;18.10;99.90
17033;DHT22;63208;52.178;21.016;2023-08-06T20:47:02;18.20;99.90
17033;DHT22;63208;52.178;21.016;2023-08-06T20:49:29;18.20;99.90
17033;DHT22;63208;52.178;21.016;2023-08-06T20:51:56;18.30;99.90
17033;DHT22;63208;52.178;21.016;2023-08-06T20:54:23;18.10;99.90
17033;DHT22;63208;52.178;21.016;2023-08-06T21:01:45;17.80;99.90
17033;DHT22;63208;52.178;21.016;2023-08-06T21:04:11;17.80;99.90
17033;DHT22;63208;52.178;21.016;2023-08-06T21:09:05;17.60;99.90
17033;DHT22;63208;52.178;21.016;2023-08-06T21:11:32;17.60;99.90
17033;DHT22;63208;52.178;21.016;2023-08-06T21:16:26;17.50;99.90
17033;DHT22;63208;52.178;21.016;2023-08-06T21:18:54;17.50;99.90
17033;DHT22;63208;52.178;21.016;2023-08-06T21:26:15;17.50;99.90
17033;DHT22;63208;52.178;21.016;2023-08-06T21:28:43;17.50;99.90
17033;DHT22;63208;52.178;21.016;2023-08-06T21:36:06;17.30;99.90
17033;DHT22;63208;52.178;21.016;2023-08-06T21:38:33;17.20;99.90
17033;DHT22;63208;52.178;21.016;2023-08-06T21:41:01;17.30;99.90
17033;DHT22;63208;52.178;21.016;2023-08-06T21:43:29;17.40;99.90
17033;DHT22;63208;52.178;21.016;2023-08-06T21:48:23;17.20;99.90
17033;DHT22;63208;52.178;21.016;2023-08-06T21:50:51;17.20;99.90
17033;DHT22;63208;52.178;21.016;2023-08-06T21:55:46;17.20;99.90
17033;DHT22;63208;52.178;21.016;2023-08-06T22:00:40;17.10;99.90
17033;DHT22;63208;52.178;21.016;2023-08-06T22:30:10;16.40;99.90
17033;DHT22;63208;52.178;21.016;2023-08-06T22:35:04;16.30;99.90
17033;DHT22;63208;52.178;21.016;2023-08-06T22:39:58;16.30;99.90
17033;DHT22;63208;52.178;21.016;2023-08-06T22:42:24;16.30;99.90
17033;DHT22;63208;52.178;21.016;2023-08-06T22:47:20;16.30;99.90
17033;DHT22;63208;52.178;21.016;2023-08-06T22:49:47;16.20;99.90
17033;DHT22;63208;52.178;21.016;2023-08-06T22:52:14;16.20;99.90
17033;DHT22;63208;52.178;21.016;2023-08-06T22:54:41;16.20;99.90
17033;DHT22;63208;52.178;21.016;2023-08-06T22:57:08;16.20;99.90
17033;DHT22;63208;52.178;21.016;2023-08-06T22:59:35;16.10;99.90
17033;DHT22;63208;52.178;21.016;2023-08-06T23:02:03;16.10;99.90
17033;DHT22;63208;52.178;21.016;2023-08-06T23:09:24;16.00;99.90
17033;DHT22;63208;52.178;21.016;2023-08-06T23:11:51;15.90;99.90
17033;DHT22;63208;52.178;21.016;2023-08-06T23:14:18;15.70;99.90
17033;DHT22;63208;52.178;21.016;2023-08-06T23:16:45;15.70;99.90
17033;DHT22;63208;52.178;21.016;2023-08-06T23:19:13;15.70;99.90
17033;DHT22;63208;52.178;21.016;2023-08-06T23:24:07;15.70;99.90
17033;DHT22;63208;52.178;21.016;2023-08-06T23:26:33;15.60;99.90
17033;DHT22;63208;52.178;21.016;2023-08-06T23:31:27;15.60;99.90
17033;DHT22;63208;52.178;21.016;2023-08-06T23:33:54;15.50;99.90
17033;DHT22;63208;52.178;21.016;2023-08-06T23:38:49;15.30;99.90
17033;DHT22;63208;52.178;21.016;2023-08-06T23:43:46;15.20;99.90
17033;DHT22;63208;52.178;21.016;2023-08-06T23:46:13;15.10;99.90
17033;DHT22;63208;52.178;21.016;2023-08-06T23:48:39;15.10;99.90
17033;DHT22;63208;52.178;21.016;2023-08-06T23:51:06;15.10;99.90
17033;DHT22;63208;52.178;21.016;2023-08-06T23:56:01;15.20;99.90
